Time;durP1;ratioP1;P1;durP2;ratioP2;P2;SDS_P1;SDS_P2;PMS_P1;PMS_P2;Temp;Humidity;BMP_temperature;BMP_pressure;BME280_temperature;BME280_humidity;BME280_pressure;Samples;Min_cycle;Max_cycle;Signal;HPM_P1;HPM_P2
2022/11/28 00:00:31;;;;;;;9.68;4.30;;;17.90;68.80;;;;;;10485873;28;20065;-30
2022/11/28 00:05:35;;;;;;;6.68;4.55;;;17.90;68.90;;;;;;10492984;28;20150;-35
2022/11/28 00:10:39;;;;;;;5.90;3.58;;;17.90;68.80;;;;;;10490340;28;20140;-37
2022/11/28 00:15:42;;;;;;;5.63;4.15;;;17.70;70.00;;;;;;10491210;28;20070;-31
2022/11/28 00:20:44;;;;;;;6.35;3.65;;;17.80;68.40;;;;;;10496480;28;20036;-30
2022/11/28 00:25:46;;;;;;;5.50;3.70;;;17.90;69.20;;;;;;10490300;28;20072;-32
2022/11/28 00:30:49;;;;;;;5.93;3.15;;;17.90;68.90;;;;;;10490914;28;20044;-30
2022/11/28 00:35:51;;;;;;;4.97;3.30;;;17.90;68.50;;;;;;10488508;28;20060;-32
2022/11/28 00:40:59;;;;;;;4.38;2.88;;;17.80;69.20;;;;;;10492391;28;20040;-30
2022/11/28 00:46:02;;;;;;;4.47;3.10;;;17.60;70.20;;;;;;10491138;28;20057;-31
2022/11/28 00:51:09;;;;;;;2.83;2.53;;;17.80;69.30;;;;;;10493344;28;20044;-32
2022/11/28 00:56:12;;;;;;;4.13;2.97;;;17.70;68.60;;;;;;10490176;28;20044;-30
2022/11/28 01:01:17;;;;;;;3.63;2.55;;;17.80;69.20;;;;;;10494262;28;20141;-31
2022/11/28 01:06:24;;;;;;;4.68;2.72;;;17.40;70.20;;;;;;10489425;28;20125;-33
2022/11/28 01:11:27;;;;;;;2.60;2.40;;;17.40;71.60;;;;;;10488686;28;20098;-38
2022/11/28 01:16:30;;;;;;;4.93;3.70;;;17.60;70.40;;;;;;10492670;28;20387;-31
2022/11/28 01:21:32;;;;;;;4.38;2.78;;;17.50;69.30;;;;;;10492495;28;20477;-36
2022/11/28 01:26:35;;;;;;;3.53;3.08;;;17.40;71.80;;;;;;10489991;28;20049;-38
2022/11/28 01:31:38;;;;;;;;;;;17.30;70.00;;;;;;10491837;28;20052;-30
2022/11/28 01:36:40;;;;;;;3.30;3.00;;;17.40;70.80;;;;;;10492828;28;19985;-32
2022/11/28 01:41:42;;;;;;;3.73;3.43;;;17.40;70.80;;;;;;10485228;28;20098;-34
2022/11/28 01:46:45;;;;;;;2.67;2.00;;;16.70;75.20;;;;;;10485850;28;20550;-30
2022/11/28 01:51:51;;;;;;;4.18;2.92;;;17.00;73.70;;;;;;10482215;28;20076;-34
2022/11/28 01:56:56;;;;;;;2.97;2.05;;;17.20;72.50;;;;;;10487331;28;20071;-30
2022/11/28 02:01:59;;;;;;;2.50;1.90;;;16.90;74.20;;;;;;10491789;28;20052;-32
2022/11/28 02:07:01;;;;;;;2.20;2.00;;;17.20;72.50;;;;;;10481892;28;20103;-31
2022/11/28 02:12:27;;;;;;;3.75;2.70;;;17.50;70.20;;;;;;10485470;28;20140;-32
2022/11/28 02:17:40;;;;;;;1.90;1.60;;;17.50;71.20;;;;;;10488246;28;20472;-37
2022/11/28 02:22:48;;;;;;;2.28;2.03;;;17.40;71.50;;;;;;10486568;28;20072;-30
2022/11/28 02:28:13;;;;;;;1.83;1.65;;;17.00;73.00;;;;;;10485643;28;20131;-31
2022/11/28 02:33:22;;;;;;;2.67;2.08;;;16.90;73.20;;;;;;10490354;28;20544;-35
2022/11/28 02:38:39;;;;;;;1.85;1.60;;;16.60;76.30;;;;;;10483468;28;20044;-31
2022/11/28 02:43:47;;;;;;;1.30;1.17;;;17.30;72.00;;;;;;10489076;28;20086;-33
2022/11/28 02:48:55;;;;;;;2.15;1.50;;;17.30;72.20;;;;;;10489545;28;20080;-32
2022/11/28 02:53:58;;;;;;;1.77;1.20;;;17.40;71.30;;;;;;10480838;28;20141;-31
2022/11/28 02:59:00;;;;;;;2.03;1.83;;;17.30;71.70;;;;;;10494859;28;20044;-32
2022/11/28 03:04:27;;;;;;;3.78;3.28;;;17.30;71.10;;;;;;10490186;28;20088;-32
2022/11/28 03:09:52;;;;;;;1.85;1.75;;;16.50;77.30;;;;;;10478251;28;20472;-30
2022/11/28 03:14:56;;;;;;;1.50;1.40;;;16.70;76.10;;;;;;10489738;28;20102;-31
2022/11/28 03:20:08;;;;;;;1.83;1.42;;;17.10;73.30;;;;;;10487978;28;20187;-31
2022/11/28 03:25:17;;;;;;;2.15;1.98;;;17.40;71.50;;;;;;10489669;28;20080;-31
2022/11/28 03:30:26;;;;;;;1.98;1.50;;;17.20;71.90;;;;;;10495138;28;20519;-31
2022/11/28 03:35:32;;;;;;;1.70;1.60;;;17.40;71.90;;;;;;10498501;28;20060;-32
2022/11/28 03:40:39;;;;;;;1.40;1.30;;;17.10;73.00;;;;;;10497308;28;21079;-34
2022/11/28 03:45:45;;;;;;;2.05;1.40;;;17.40;71.40;;;;;;10496736;28;20481;-34
2022/11/28 03:50:58;;;;;;;2.53;1.40;;;17.40;71.40;;;;;;10495093;28;20489;-32
2022/11/28 03:56:05;;;;;;;1.52;1.40;;;17.40;71.40;;;;;;10492006;28;20197;-32
2022/11/28 04:01:13;;;;;;;0.95;0.93;;;17.50;71.00;;;;;;10494993;28;20056;-31
2022/11/28 04:06:22;;;;;;;1.42;1.33;;;17.60;70.60;;;;;;10489375;28;20041;-30
2022/11/28 04:11:31;;;;;;;3.55;1.70;;;17.40;70.50;;;;;;10498356;28;20082;-30
2022/11/28 04:16:37;;;;;;;1.98;1.33;;;17.50;70.70;;;;;;10494729;28;20084;-31
2022/11/28 04:21:45;;;;;;;1.15;1.05;;;17.60;70.00;;;;;;10491694;28;20090;-32
2022/11/28 04:26:52;;;;;;;3.33;1.50;;;17.40;71.70;;;;;;10486417;28;20131;-30
2022/11/28 04:31:57;;;;;;;1.42;1.33;;;17.60;70.50;;;;;;10496439;28;20476;-32
2022/11/28 04:37:02;;;;;;;3.33;2.63;;;17.60;70.20;;;;;;10494160;28;20634;-33
2022/11/28 04:42:10;;;;;;;2.13;1.88;;;17.50;70.50;;;;;;10494159;28;20128;-31
2022/11/28 04:47:12;;;;;;;1.27;1.17;;;17.60;70.30;;;;;;10494872;28;20074;-30
2022/11/28 04:52:20;;;;;;;1.20;1.10;;;17.60;70.40;;;;;;10491533;28;20036;-34
2022/11/28 04:57:29;;;;;;;0.80;0.80;;;17.70;70.40;;;;;;10491701;28;20048;-32
2022/11/28 05:02:32;;;;;;;1.35;1.05;;;17.70;69.60;;;;;;10494117;28;20065;-34
2022/11/28 05:07:36;;;;;;;1.83;1.23;;;17.70;69.70;;;;;;10493386;28;20040;-30
2022/11/28 05:12:38;;;;;;;1.48;1.10;;;17.70;69.80;;;;;;10490618;28;20106;-28
2022/11/28 05:17:40;;;;;;;0.80;0.77;;;17.70;69.70;;;;;;10497763;28;20070;-30
2022/11/28 05:22:43;;;;;;;2.10;1.50;;;17.70;69.40;;;;;;10497771;28;20084;-31
2022/11/28 05:27:45;;;;;;;1.48;1.25;;;17.80;69.40;;;;;;10494093;28;20479;-31
2022/11/28 05:32:47;;;;;;;1.30;1.00;;;17.70;69.20;;;;;;10491476;28;20132;-32
2022/11/28 05:37:51;;;;;;;2.33;1.50;;;17.70;69.40;;;;;;10492446;28;20866;-32
2022/11/28 05:42:52;;;;;;;2.42;1.85;;;17.80;69.40;;;;;;10491645;28;20110;-31
2022/11/28 05:47:54;;;;;;;1.93;1.70;;;17.60;70.10;;;;;;10487331;28;20098;-32
2022/11/28 05:52:58;;;;;;;2.67;1.95;;;17.60;70.30;;;;;;10478816;28;20501;-31
2022/11/28 05:57:59;;;;;;;2.90;2.05;;;17.60;70.20;;;;;;10485950;28;20048;-37
2022/11/28 06:03:03;;;;;;;2.30;2.00;;;17.00;74.00;;;;;;10479749;28;20451;-35
2022/11/28 06:08:07;;;;;;;6.45;3.67;;;17.60;71.10;;;;;;10488932;28;21350;-35
2022/11/28 06:13:09;;;;;;;10.23;6.90;;;17.40;71.90;;;;;;10489547;28;20118;-32
2022/11/28 06:18:11;;;;;;;18.53;11.00;;;16.70;76.60;;;;;;10478098;28;20087;-37
2022/11/28 06:23:14;;;;;;;8.63;4.90;;;15.90;82.30;;;;;;10486576;28;20101;-29
2022/11/28 06:28:16;;;;;;;8.70;2.65;;;16.40;79.70;;;;;;10491033;28;20071;-32
2022/11/28 06:33:17;;;;;;;9.80;6.80;;;16.80;77.70;;;;;;10490228;28;20090;-36
2022/11/28 06:38:21;;;;;;;5.70;2.13;;;16.60;78.50;;;;;;10487033;28;20140;-35
2022/11/28 06:43:23;;;;;;;8.52;6.22;;;16.90;77.60;;;;;;10484098;28;20048;-31
2022/11/28 06:48:25;;;;;;;2.63;2.00;;;16.80;76.90;;;;;;10484269;28;20090;-32
2022/11/28 06:53:28;;;;;;;7.63;4.60;;;17.20;74.70;;;;;;10492928;28;20090;-35
2022/11/28 06:58:30;;;;;;;4.53;3.17;;;17.00;76.10;;;;;;10487977;28;20139;-32
2022/11/28 07:15:31;;;;;;;6.40;3.30;;;16.60;78.90;;;;;;10543524;27;20511;-36
2022/11/28 07:20:33;;;;;;;5.40;2.20;;;17.00;76.50;;;;;;10522367;28;20066;-32
2022/11/28 07:25:34;;;;;;;3.07;2.60;;;17.20;75.20;;;;;;10511385;28;20135;-31
2022/11/28 07:30:38;;;;;;;5.40;2.43;;;17.30;74.50;;;;;;10538545;28;20044;-31
2022/11/28 07:35:39;;;;;;;3.10;2.03;;;17.20;75.70;;;;;;10517119;28;20098;-32
2022/11/28 07:40:41;;;;;;;2.27;2.07;;;17.60;72.50;;;;;;10520770;28;20448;-31
2022/11/28 07:45:45;;;;;;;7.68;2.92;;;17.70;72.20;;;;;;10513041;28;20088;-31
2022/11/28 07:50:46;;;;;;;11.40;6.13;;;17.60;72.60;;;;;;10525821;28;20052;-32
2022/11/28 07:55:48;;;;;;;7.50;3.17;;;17.30;74.70;;;;;;10516922;28;20436;-33
2022/11/28 08:00:51;;;;;;;10.00;5.07;;;17.30;75.20;;;;;;10526235;28;20055;-31
2022/11/28 08:05:53;;;;;;;21.65;10.57;;;17.40;73.60;;;;;;10529014;28;20140;-31
2022/11/28 08:10:58;;;;;;;8.17;4.93;;;16.50;80.00;;;;;;10542165;28;20051;-35
2022/11/28 08:16:05;;;;;;;8.32;4.72;;;16.90;78.40;;;;;;10502174;28;20094;-31
2022/11/28 08:21:09;;;;;;;6.88;3.17;;;17.00;77.10;;;;;;10511354;28;20055;-30
2022/11/28 08:26:13;;;;;;;5.50;4.25;;;16.50;82.10;;;;;;10495030;28;20052;-37
2022/11/28 08:31:18;;;;;;;8.40;4.63;;;17.40;74.80;;;;;;10501834;28;20055;-33
2022/11/28 08:36:20;;;;;;;7.70;4.40;;;17.20;76.00;;;;;;10497944;28;20036;-32
2022/11/28 08:41:23;;;;;;;7.88;4.65;;;17.30;75.70;;;;;;10498985;28;20379;-32
2022/11/28 08:46:27;;;;;;;5.53;3.42;;;17.30;75.20;;;;;;10502282;28;20556;-30
2022/11/28 08:51:29;;;;;;;4.18;2.70;;;17.50;74.00;;;;;;10494980;28;20481;-33
2022/11/28 08:56:31;;;;;;;4.90;3.25;;;17.50;74.60;;;;;;10497915;28;20048;-31
2022/11/28 09:01:34;;;;;;;6.30;4.50;;;17.60;73.00;;;;;;10503964;28;20560;-33
2022/11/28 09:06:39;;;;;;;8.23;5.22;;;17.30;75.30;;;;;;10500486;28;20517;-31
2022/11/28 09:11:41;;;;;;;3.00;2.47;;;17.20;75.90;;;;;;10491683;28;20564;-32
2022/11/28 09:16:44;;;;;;;13.45;6.40;;;17.20;76.70;;;;;;10493196;28;20052;-31
2022/11/28 09:21:46;;;;;;;4.68;2.75;;;16.80;78.80;;;;;;10496890;28;20552;-31
2022/11/28 09:26:48;;;;;;;8.53;4.37;;;17.10;76.80;;;;;;10502474;28;20051;-31
2022/11/28 09:31:51;;;;;;;4.73;3.17;;;17.30;75.60;;;;;;10490048;28;20154;-32
2022/11/28 09:36:53;;;;;;;4.68;3.53;;;16.60;81.20;;;;;;10471209;28;20053;-31
2022/11/28 09:42:04;;;;;;;3.63;2.77;;;16.60;81.10;;;;;;10458815;28;20102;-34
2022/11/28 09:47:13;;;;;;;9.00;6.80;;;16.80;80.00;;;;;;10475957;28;20063;-30
2022/11/28 09:52:29;;;;;;;6.05;2.75;;;16.20;83.30;;;;;;10463906;28;20525;-30
2022/11/28 09:57:36;;;;;;;19.90;9.88;;;16.70;80.40;;;;;;10476354;28;20131;-31
2022/11/28 10:02:47;;;;;;;5.15;3.65;;;15.80;86.70;;;;;;10464631;28;20659;-34
2022/11/28 10:08:01;;;;;;;4.68;2.88;;;16.90;79.10;;;;;;10465287;28;20044;-31
2022/11/28 10:13:10;;;;;;;3.35;2.22;;;17.20;76.40;;;;;;10458967;28;20049;-32
2022/11/28 10:18:28;;;;;;;4.32;2.10;;;17.60;73.80;;;;;;10463990;28;20186;-30
2022/11/28 10:23:34;;;;;;;5.18;2.80;;;17.60;73.90;;;;;;10470779;28;20135;-30
2022/11/28 10:28:42;;;;;;;10.65;6.00;;;17.10;77.80;;;;;;10459790;28;20131;-30
2022/11/28 10:33:52;;;;;;;8.45;4.38;;;17.30;76.40;;;;;;10460294;28;20171;-31
2022/11/28 10:38:54;;;;;;;7.97;4.43;;;16.60;81.50;;;;;;10466543;28;20072;-31
2022/11/28 10:44:01;;;;;;;5.87;3.20;;;16.30;84.20;;;;;;10476134;28;20052;-32
2022/11/28 10:49:18;;;;;;;5.68;3.10;;;16.90;79.20;;;;;;10469756;28;20549;-32
2022/11/28 10:54:35;;;;;;;3.20;2.38;;;17.30;75.20;;;;;;10475476;28;20055;-33
2022/11/28 10:59:53;;;;;;;3.50;2.20;;;17.20;76.70;;;;;;10465880;28;20049;-33
2022/11/28 11:04:56;;;;;;;5.40;2.70;;;17.50;74.10;;;;;;10467007;28;20455;-38
2022/11/28 11:10:06;;;;;;;5.18;2.55;;;17.50;73.90;;;;;;10467992;28;20120;-29
2022/11/28 11:15:20;;;;;;;10.10;4.47;;;17.40;75.00;;;;;;10467448;28;20102;-30
2022/11/28 11:20:36;;;;;;;3.38;2.42;;;17.30;75.70;;;;;;10466405;28;20430;-32
2022/11/28 11:25:45;;;;;;;4.22;2.58;;;17.60;73.80;;;;;;10478791;28;20047;-33
2022/11/28 11:30:46;;;;;;;7.65;2.20;;;17.70;72.70;;;;;;10461756;28;20094;-32
2022/11/28 11:35:50;;;;;;;2.57;1.70;;;17.80;72.00;;;;;;10459010;28;20110;-32
2022/11/28 11:40:52;;;;;;;7.63;3.08;;;17.90;71.40;;;;;;10464932;28;20053;-31
2022/11/28 11:46:07;;;;;;;;;;;17.90;71.60;;;;;;10463034;28;20106;-31
2022/11/28 11:51:22;;;;;;;4.28;2.13;;;17.90;70.80;;;;;;10456502;28;20012;-37
2022/11/28 11:56:25;;;;;;;4.80;1.98;;;18.00;70.70;;;;;;10455701;28;20072;-32
2022/11/28 12:01:28;;;;;;;8.05;3.38;;;17.80;71.90;;;;;;10479901;28;20043;-30
2022/11/28 12:06:36;;;;;;;2.72;2.00;;;17.50;74.00;;;;;;10469903;28;20135;-31
2022/11/28 12:11:42;;;;;;;2.35;1.58;;;17.60;73.30;;;;;;10469729;28;20072;-29
2022/11/28 12:16:52;;;;;;;2.60;1.60;;;17.80;72.50;;;;;;10469816;28;20139;-32
2022/11/28 12:22:11;;;;;;;8.20;3.38;;;17.90;71.10;;;;;;10466107;28;20048;-31
2022/11/28 12:27:26;;;;;;;2.25;1.42;;;18.00;71.00;;;;;;10470627;28;20133;-32
2022/11/28 12:32:41;;;;;;;4.03;2.00;;;18.10;70.60;;;;;;10482565;28;20485;-32
2022/11/28 12:37:55;;;;;;;11.90;3.65;;;18.10;70.90;;;;;;10469135;28;20044;-31
2022/11/28 12:43:11;;;;;;;2.97;1.67;;;17.50;76.80;;;;;;10490018;28;20537;-31
2022/11/28 12:48:27;;;;;;;14.25;4.47;;;17.70;73.60;;;;;;10498010;28;20052;-31
2022/11/28 12:53:45;;;;;;;25.95;7.13;;;17.20;79.10;;;;;;10458692;28;20077;-30
2022/11/28 12:58:57;;;;;;;8.65;3.05;;;15.30;90.70;;;;;;10463056;28;20099;-30
2022/11/28 13:04:12;;;;;;;5.35;2.35;;;16.90;81.60;;;;;;10489549;28;20493;-33
2022/11/28 13:09:27;;;;;;;5.75;3.30;;;17.70;75.40;;;;;;10494170;28;20048;-31
2022/11/28 13:14:38;;;;;;;7.65;2.78;;;17.90;73.80;;;;;;10483632;28;20057;-31
2022/11/28 13:19:48;;;;;;;7.57;2.85;;;17.80;75.00;;;;;;10480815;28;20477;-33
2022/11/28 13:25:00;;;;;;;9.80;3.55;;;18.00;73.40;;;;;;10470719;28;20103;-29
2022/11/28 13:30:13;;;;;;;12.90;3.83;;;18.10;72.90;;;;;;10469092;28;20126;-36
2022/11/28 13:35:17;;;;;;;12.43;4.22;;;18.30;72.00;;;;;;10483634;28;20052;-32
2022/11/28 13:40:31;;;;;;;11.52;4.35;;;18.40;71.50;;;;;;10484074;28;20520;-31
2022/11/28 13:45:35;;;;;;;13.55;4.05;;;18.30;72.50;;;;;;10477045;28;20045;-37
2022/11/28 13:50:40;;;;;;;11.90;4.90;;;18.50;71.30;;;;;;10511959;28;20044;-31
2022/11/28 13:55:46;;;;;;;11.07;4.53;;;18.50;71.20;;;;;;10494561;28;20052;-31
2022/11/28 14:01:07;;;;;;;16.70;4.18;;;18.60;71.10;;;;;;10495473;28;20559;-31
2022/11/28 14:06:10;;;;;;;10.87;4.37;;;18.50;71.90;;;;;;10473147;28;20044;-32
2022/11/28 14:11:25;;;;;;;12.20;3.75;;;18.50;72.00;;;;;;10492482;28;20110;-33
2022/11/28 14:16:41;;;;;;;17.13;4.28;;;18.60;71.60;;;;;;10481975;28;20049;-33
2022/11/28 14:21:57;;;;;;;10.80;3.90;;;18.10;74.70;;;;;;10480278;28;20488;-35
2022/11/28 14:27:04;;;;;;;9.68;4.50;;;18.50;72.60;;;;;;10494400;28;20045;-33
2022/11/28 14:32:06;;;;;;;9.18;3.22;;;18.70;72.00;;;;;;10472594;28;20037;-31
2022/11/28 14:37:45;;;;;;;7.07;3.25;;;18.70;72.00;;;;;;10460371;28;20137;-30
2022/11/28 14:42:48;;;;;;;15.90;4.00;;;18.70;71.90;;;;;;10444777;28;20102;-37
2022/11/28 14:48:14;;;;;;;8.88;3.33;;;18.70;72.10;;;;;;10463125;28;20532;-31
2022/11/28 14:53:44;;;;;;;8.70;3.15;;;18.70;72.50;;;;;;10483110;28;20108;-29
2022/11/28 14:58:49;;;;;;;6.45;3.08;;;18.30;73.50;;;;;;10466010;28;20044;-31
2022/11/28 15:03:58;;;;;;;6.68;2.90;;;18.70;73.20;;;;;;10491992;28;20076;-34
2022/11/28 15:09:07;;;;;;;6.95;2.75;;;18.80;72.30;;;;;;10474202;28;20043;-35
2022/11/28 15:14:21;;;;;;;11.45;3.22;;;19.00;72.10;;;;;;10462068;28;20110;-32
2022/11/28 15:19:27;;;;;;;6.30;2.72;;;19.10;72.10;;;;;;10474779;28;20044;-30
2022/11/28 15:24:31;;;;;;;6.50;3.00;;;19.10;72.30;;;;;;10465795;28;20120;-30
2022/11/28 15:29:35;;;;;;;9.10;2.22;;;19.20;72.10;;;;;;10475146;28;20136;-33
2022/11/28 15:34:38;;;;;;;8.77;2.45;;;19.20;72.20;;;;;;10473591;28;20048;-33
2022/11/28 15:39:41;;;;;;;6.78;2.47;;;19.20;72.30;;;;;;10482910;28;20071;-31
2022/11/28 15:44:45;;;;;;;5.93;2.40;;;19.30;72.20;;;;;;10479731;28;20517;-31
2022/11/28 15:49:59;;;;;;;5.38;2.33;;;19.30;72.20;;;;;;10475195;28;20082;-31
2022/11/28 15:55:01;;;;;;;10.23;2.38;;;19.40;72.00;;;;;;10480618;28;20406;-31
2022/11/28 16:00:06;;;;;;;10.65;2.53;;;19.40;71.60;;;;;;10469680;28;20048;-32
2022/11/28 16:05:11;;;;;;;13.30;4.53;;;19.40;71.80;;;;;;10482519;28;20110;-33
2022/11/28 16:10:22;;;;;;;16.42;7.82;;;19.10;73.10;;;;;;10488261;28;20090;-31
2022/11/28 16:15:26;;;;;;;10.27;3.45;;;18.30;76.80;;;;;;10493252;28;20056;-37
2022/11/28 16:20:33;;;;;;;8.02;2.28;;;18.70;75.90;;;;;;10489196;28;20076;-30
2022/11/28 16:25:35;;;;;;;27.90;11.75;;;18.90;74.60;;;;;;10481727;28;20068;-31
2022/11/28 16:30:43;;;;;;;8.70;2.65;;;17.70;76.90;;;;;;10491479;28;20486;-33
2022/11/28 16:35:45;;;;;;;5.68;2.60;;;18.50;77.60;;;;;;10500528;28;21644;-33
2022/11/28 16:40:47;;;;;;;11.88;4.72;;;18.70;75.10;;;;;;10494850;28;20087;-33
2022/11/28 16:45:59;;;;;;;22.58;5.53;;;18.50;76.80;;;;;;10492341;28;20088;-33
2022/11/28 16:51:32;;;;;;;6.57;2.53;;;18.80;74.60;;;;;;10499597;28;20056;-30
2022/11/28 16:56:44;;;;;;;11.30;4.47;;;18.90;73.80;;;;;;10369329;28;20080;-35
2022/11/28 17:01:51;;;;;;;9.60;4.38;;;18.60;75.30;;;;;;10484190;28;20052;-34
2022/11/28 17:06:54;;;;;;;9.02;3.75;;;18.60;75.10;;;;;;10491505;28;20419;-30
2022/11/28 17:11:59;;;;;;;7.22;3.50;;;18.60;75.20;;;;;;10490130;28;20075;-32
2022/11/28 17:17:05;;;;;;;19.65;5.72;;;18.70;74.40;;;;;;10489861;28;20050;-30
2022/11/28 17:22:11;;;;;;;11.20;3.35;;;18.40;76.50;;;;;;10488119;28;20074;-34
2022/11/28 17:27:14;;;;;;;9.13;3.50;;;18.60;74.80;;;;;;10490191;28;20053;-33
2022/11/28 17:32:17;;;;;;;7.28;3.50;;;18.70;74.20;;;;;;10491987;28;20486;-33
2022/11/28 17:37:19;;;;;;;11.27;3.97;;;18.80;73.90;;;;;;10480513;28;20052;-25
2022/11/28 17:42:21;;;;;;;11.40;3.47;;;18.70;73.80;;;;;;10478682;28;20087;-34
2022/11/28 17:47:24;;;;;;;7.70;3.58;;;18.70;74.50;;;;;;10493823;28;20141;-30
2022/11/28 17:52:29;;;;;;;11.70;4.50;;;18.80;73.60;;;;;;10491813;28;20477;-31
2022/11/28 17:57:31;;;;;;;10.52;4.53;;;18.90;73.30;;;;;;10481416;28;20048;-34
2022/11/28 18:02:34;;;;;;;10.10;4.68;;;18.90;73.30;;;;;;10486655;28;20094;-32
2022/11/28 18:07:36;;;;;;;11.43;5.50;;;18.90;73.60;;;;;;10486995;28;20052;-32
2022/11/28 18:12:38;;;;;;;10.43;4.70;;;18.90;73.90;;;;;;10492250;28;20045;-33
2022/11/28 18:17:41;;;;;;;9.68;6.10;;;18.80;74.40;;;;;;10493998;28;20057;-33
2022/11/28 18:22:43;;;;;;;9.27;5.57;;;18.80;74.40;;;;;;10492135;28;20139;-31
2022/11/28 18:27:45;;;;;;;11.15;6.00;;;18.80;74.50;;;;;;10485589;28;20512;-35
2022/11/28 18:32:48;;;;;;;15.02;6.75;;;18.80;74.90;;;;;;10477058;28;20136;-34
2022/11/28 18:37:50;;;;;;;12.80;6.88;;;18.70;74.70;;;;;;10471657;28;20501;-31
2022/11/28 18:42:52;;;;;;;18.08;8.35;;;18.70;74.90;;;;;;10491781;28;20063;-31
2022/11/28 18:47:55;;;;;;;12.30;6.63;;;19.20;76.50;;;;;;10486201;28;20049;-33
2022/11/28 18:52:57;;;;;;;15.20;6.30;;;19.40;73.70;;;;;;10496357;28;20131;-32
2022/11/28 18:57:59;;;;;;;14.50;6.03;;;19.10;74.40;;;;;;10481039;28;20135;-30
2022/11/28 19:03:02;;;;;;;12.18;5.97;;;19.00;75.00;;;;;;10491528;28;20477;-33
2022/11/28 19:08:04;;;;;;;12.00;5.65;;;19.00;75.20;;;;;;10484217;28;20045;-37
2022/11/28 19:13:06;;;;;;;14.40;6.05;;;19.40;79.80;;;;;;10481765;28;20137;-34
2022/11/28 19:18:10;;;;;;;13.93;6.00;;;19.80;73.70;;;;;;10486214;28;20041;-30
2022/11/28 19:23:12;;;;;;;28.92;9.68;;;20.10;72.40;;;;;;10492723;28;20493;-31
2022/11/28 19:28:14;;;;;;;29.27;10.57;;;20.20;71.20;;;;;;10481065;28;20048;-29
2022/11/28 19:33:17;;;;;;;24.27;10.95;;;20.20;71.40;;;;;;10484224;28;20709;-31
2022/11/28 19:38:19;;;;;;;27.67;10.00;;;20.20;71.20;;;;;;10479019;28;20130;-31
2022/11/28 19:43:21;;;;;;;25.42;9.80;;;19.90;72.90;;;;;;10483496;28;20060;-32
2022/11/28 19:48:24;;;;;;;25.45;8.95;;;19.80;73.00;;;;;;10491282;28;20063;-34
2022/11/28 19:53:28;;;;;;;19.77;8.30;;;19.60;74.10;;;;;;10483635;28;20504;-31
2022/11/28 19:58:31;;;;;;;18.90;8.07;;;19.50;74.70;;;;;;10496420;28;20064;-33
2022/11/28 20:03:35;;;;;;;21.55;8.15;;;19.40;75.20;;;;;;10483496;28;20072;-33
2022/11/28 20:08:38;;;;;;;12.20;7.20;;;19.40;75.50;;;;;;10498997;28;20148;-29
2022/11/28 20:13:41;;;;;;;18.02;7.57;;;19.40;75.70;;;;;;10488859;28;20110;-31
2022/11/28 20:18:45;;;;;;;13.35;6.07;;;19.30;76.00;;;;;;10483613;28;20126;-30
2022/11/28 20:23:49;;;;;;;12.65;5.55;;;19.30;75.80;;;;;;10495304;28;20049;-31
2022/11/28 20:28:51;;;;;;;13.73;5.88;;;19.30;75.70;;;;;;10495030;28;20059;-34
2022/11/28 20:33:55;;;;;;;13.30;5.85;;;19.20;75.80;;;;;;10491823;28;20048;-30
2022/11/28 20:38:57;;;;;;;10.75;5.35;;;19.20;75.70;;;;;;10467814;28;20505;-36
2022/11/28 20:44:00;;;;;;;16.15;5.68;;;19.20;75.70;;;;;;10477943;28;20140;-32
2022/11/28 20:49:05;;;;;;;17.30;5.95;;;19.20;75.60;;;;;;10501922;28;20541;-32
2022/11/28 20:54:07;;;;;;;11.18;5.20;;;19.20;75.50;;;;;;10495087;28;20097;-31
2022/11/28 20:59:14;;;;;;;9.52;4.57;;;19.20;75.50;;;;;;10491920;28;20052;-33
2022/11/28 21:04:18;;;;;;;11.70;5.25;;;19.10;75.50;;;;;;10491422;28;20531;-30
2022/11/28 21:09:20;;;;;;;12.05;5.38;;;19.10;75.60;;;;;;10484971;28;20678;-32
2022/11/28 21:14:22;;;;;;;18.25;5.63;;;19.10;75.40;;;;;;10486213;28;20063;-37
2022/11/28 21:19:25;;;;;;;15.15;4.72;;;19.10;75.50;;;;;;10481836;28;20057;-36
2022/11/28 21:24:28;;;;;;;11.95;4.60;;;19.10;75.40;;;;;;10476741;28;20048;-35
2022/11/28 21:29:30;;;;;;;10.70;4.93;;;19.00;75.40;;;;;;10484307;28;20331;-34
2022/11/28 21:34:33;;;;;;;11.32;4.47;;;19.00;75.40;;;;;;10484195;28;20137;-33
2022/11/28 21:39:35;;;;;;;12.48;5.13;;;19.00;75.30;;;;;;10488057;28;20037;-33
2022/11/28 21:44:37;;;;;;;11.90;4.55;;;19.00;75.50;;;;;;10488267;28;20048;-36
2022/11/28 21:49:40;;;;;;;10.25;5.10;;;19.00;75.40;;;;;;10506646;28;20044;-36
2022/11/28 21:54:42;;;;;;;11.93;4.53;;;19.00;75.60;;;;;;10494150;28;20147;-31
2022/11/28 21:59:43;;;;;;;14.60;6.53;;;18.90;75.50;;;;;;10479599;28;20513;-31
2022/11/28 22:04:47;;;;;;;13.95;5.32;;;18.90;75.50;;;;;;10478090;28;20052;-31
2022/11/28 22:09:48;;;;;;;14.70;5.82;;;18.90;75.50;;;;;;10491587;28;20570;-33
2022/11/28 22:14:50;;;;;;;12.73;5.63;;;18.80;75.50;;;;;;10478256;28;20119;-32
2022/11/28 22:19:53;;;;;;;16.30;6.28;;;18.80;75.50;;;;;;10476039;28;20055;-31
2022/11/28 22:24:55;;;;;;;21.08;7.50;;;18.80;75.50;;;;;;10477199;28;20131;-31
2022/11/28 22:29:57;;;;;;;20.02;7.90;;;18.80;75.40;;;;;;10480423;28;20110;-35
2022/11/28 22:35:01;;;;;;;22.55;9.82;;;18.80;75.30;;;;;;10485095;28;20084;-39
2022/11/28 22:40:03;;;;;;;34.28;10.23;;;18.80;75.40;;;;;;10481680;28;20045;-32
2022/11/28 22:45:05;;;;;;;;;;;18.80;75.30;;;;;;10464338;28;20058;-31
2022/11/28 22:50:10;;;;;;;19.70;10.20;;;18.70;75.30;;;;;;10484976;28;19920;-33
2022/11/28 22:55:11;;;;;;;25.10;9.48;;;18.70;75.10;;;;;;10491032;28;20052;-31
2022/11/28 23:00:14;;;;;;;19.42;9.45;;;18.70;75.00;;;;;;10491469;28;20120;-35
2022/11/28 23:05:17;;;;;;;;;;;18.70;74.80;;;;;;10481321;28;20486;-37
2022/11/28 23:10:19;;;;;;;22.48;9.68;;;18.70;74.90;;;;;;10499960;28;19921;-32
2022/11/28 23:15:21;;;;;;;21.73;10.38;;;18.70;74.80;;;;;;10481184;28;20092;-31
2022/11/28 23:20:24;;;;;;;19.02;9.30;;;18.70;74.80;;;;;;10475951;28;20637;-37
2022/11/28 23:25:26;;;;;;;27.15;9.52;;;18.60;74.80;;;;;;10475095;28;20044;-33
2022/11/28 23:30:28;;;;;;;18.90;8.95;;;18.60;74.80;;;;;;10474585;28;20458;-29
2022/11/28 23:35:31;;;;;;;21.10;9.32;;;18.60;74.70;;;;;;10466408;28;20672;-33
2022/11/28 23:40:33;;;;;;;21.95;8.95;;;18.60;74.80;;;;;;10484087;28;20064;-32
2022/11/28 23:45:35;;;;;;;22.38;8.80;;;18.60;74.50;;;;;;10488666;28;20059;-32
2022/11/28 23:50:38;;;;;;;21.25;8.15;;;18.50;74.70;;;;;;10479890;28;20512;-33
2022/11/28 23:55:40;;;;;;;20.75;7.72;;;18.60;74.60;;;;;;10488106;28;20106;-33
